createdAt,value
2017-05-09T00:01:52.173Z,9.70
2017-05-09T00:04:19.182Z,9.70
2017-05-09T00:06:46.115Z,9.80
2017-05-09T00:09:13.026Z,9.70
2017-05-09T00:11:40.815Z,9.70
2017-05-09T00:14:07.745Z,9.50
2017-05-09T00:16:34.703Z,9.30
2017-05-09T00:19:01.659Z,9.30
2017-05-09T00:21:28.622Z,9.50
2017-05-09T00:23:55.945Z,9.50
2017-05-09T00:26:22.901Z,9.50
2017-05-09T00:28:49.824Z,9.40
2017-05-09T00:31:17.529Z,9.40
2017-05-09T00:33:44.575Z,9.30
2017-05-09T00:36:12.486Z,9.20
2017-05-09T00:38:39.425Z,9.20
2017-05-09T00:41:06.385Z,9.30
2017-05-09T00:43:34.126Z,9.30
2017-05-09T00:46:01.094Z,9.30
2017-05-09T00:48:28.117Z,9.30
2017-05-09T00:50:55.118Z,9.20
2017-05-09T00:53:22.088Z,9.10
2017-05-09T00:55:49.107Z,9.00
2017-05-09T00:58:16.063Z,9.00
2017-05-09T01:00:43.772Z,9.10
2017-05-09T01:03:10.701Z,9.00
2017-05-09T01:05:38.536Z,8.90
2017-05-09T01:08:05.514Z,8.90
2017-05-09T01:10:32.863Z,8.80
2017-05-09T01:12:59.822Z,8.80
2017-05-09T01:15:26.778Z,8.90
2017-05-09T01:17:53.776Z,8.90
2017-05-09T01:20:20.739Z,8.90
2017-05-09T01:22:47.698Z,8.90
2017-05-09T01:25:14.650Z,8.90
2017-05-09T01:27:41.597Z,8.80
2017-05-09T01:30:08.603Z,8.70
2017-05-09T01:32:35.588Z,8.70
2017-05-09T01:35:02.545Z,8.70
2017-05-09T01:37:29.588Z,8.70
2017-05-09T01:39:56.567Z,8.80
2017-05-09T01:42:24.268Z,8.80
2017-05-09T01:44:51.335Z,8.80
2017-05-09T01:47:18.878Z,8.90
2017-05-09T01:49:45.847Z,8.90
2017-05-09T01:52:12.820Z,8.90
2017-05-09T01:54:39.762Z,8.80
2017-05-09T01:57:06.706Z,8.80
2017-05-09T01:59:34.312Z,8.80
2017-05-09T02:02:01.296Z,8.80
2017-05-09T02:04:28.227Z,8.80
2017-05-09T02:06:55.263Z,8.80
2017-05-09T02:09:22.210Z,8.80
2017-05-09T02:11:49.169Z,8.70
2017-05-09T02:14:16.225Z,8.70
2017-05-09T02:16:43.183Z,8.70
2017-05-09T02:19:11.008Z,8.60
2017-05-09T02:21:37.953Z,8.60
2017-05-09T02:24:04.860Z,8.60
2017-05-09T02:26:31.799Z,8.60
2017-05-09T02:28:58.784Z,8.60
2017-05-09T02:31:25.704Z,8.60
2017-05-09T02:33:52.623Z,8.60
2017-05-09T02:36:19.590Z,8.60
2017-05-09T02:38:46.590Z,8.60
2017-05-09T02:41:13.545Z,8.60
2017-05-09T02:43:40.532Z,8.60
2017-05-09T02:46:07.508Z,8.60
2017-05-09T02:48:35.345Z,8.60
2017-05-09T02:53:39.106Z,8.40
2017-05-09T02:56:06.745Z,8.40
2017-05-09T02:58:34.411Z,8.40
2017-05-09T03:01:02.088Z,8.20
2017-05-09T03:03:29.065Z,8.20
2017-05-09T03:05:56.177Z,8.20
2017-05-09T03:08:23.920Z,8.10
2017-05-09T03:10:50.876Z,8.10
2017-05-09T03:13:18.547Z,8.10
2017-05-09T03:15:46.792Z,8.10
2017-05-09T03:18:13.763Z,8.10
2017-05-09T03:20:41.480Z,8.10
2017-05-09T03:23:08.417Z,8.20
2017-05-09T03:25:35.388Z,8.30
2017-05-09T03:28:02.349Z,8.30
2017-05-09T03:30:31.064Z,8.30
2017-05-09T03:32:58.189Z,8.20
2017-05-09T03:35:25.107Z,8.30
2017-05-09T03:37:52.128Z,8.30
2017-05-09T03:40:19.068Z,8.20
2017-05-09T03:42:46.000Z,8.20
2017-05-09T03:45:13.667Z,8.20
2017-05-09T03:47:40.618Z,8.20
2017-05-09T03:50:07.596Z,8.10
2017-05-09T03:52:34.538Z,8.10
2017-05-09T03:55:01.447Z,8.10
2017-05-09T03:57:29.079Z,8.10
2017-05-09T03:59:56.329Z,8.10
2017-05-09T04:02:23.256Z,8.00
2017-05-09T04:04:50.226Z,8.00
2017-05-09T04:07:17.200Z,8.00
2017-05-09T04:09:45.162Z,7.90
2017-05-09T04:12:12.813Z,7.90
2017-05-09T04:14:39.701Z,7.90
2017-05-09T04:17:06.718Z,7.80
2017-05-09T04:19:34.380Z,7.90
2017-05-09T04:22:01.318Z,8.00
2017-05-09T04:24:29.019Z,8.00
2017-05-09T04:26:55.977Z,8.10
2017-05-09T04:29:22.907Z,8.20
2017-05-09T04:31:49.889Z,8.10
2017-05-09T04:34:16.812Z,8.20
2017-05-09T04:36:43.771Z,8.30
2017-05-09T04:39:10.749Z,8.40
2017-05-09T04:41:37.711Z,8.50
2017-05-09T04:44:05.375Z,8.50
2017-05-09T04:46:33.071Z,8.60
2017-05-09T04:49:00.069Z,8.70
2017-05-09T04:51:26.996Z,8.80
2017-05-09T04:53:53.970Z,8.90
2017-05-09T04:56:22.318Z,9.00
2017-05-09T04:58:49.237Z,9.20
2017-05-09T05:01:16.149Z,9.40
2017-05-09T05:03:43.089Z,9.60
2017-05-09T05:08:51.105Z,10.00
2017-05-09T05:11:18.782Z,10.20
2017-05-09T05:13:46.479Z,10.40
2017-05-09T05:16:13.498Z,10.60
2017-05-09T05:18:40.458Z,10.70
2017-05-09T05:21:07.427Z,10.80
2017-05-09T05:23:34.450Z,11.00
2017-05-09T05:26:01.402Z,11.10
2017-05-09T05:28:28.360Z,11.20
2017-05-09T05:30:55.342Z,11.40
2017-05-09T05:33:22.326Z,11.50
2017-05-09T05:35:50.091Z,11.30
2017-05-09T05:38:17.090Z,11.20
2017-05-09T05:40:44.077Z,11.10
2017-05-09T05:43:11.080Z,11.10
2017-05-09T05:45:38.043Z,11.00
2017-05-09T05:48:05.001Z,11.00
2017-05-09T05:50:32.712Z,11.00
2017-05-09T05:52:59.702Z,10.90
2017-05-09T05:55:27.499Z,11.00
2017-05-09T05:57:54.481Z,11.20
2017-05-09T06:00:21.401Z,11.60
2017-05-09T06:02:48.382Z,11.80
2017-05-09T06:05:15.305Z,12.00
2017-05-09T06:07:42.249Z,12.30
2017-05-09T06:10:09.222Z,12.50
2017-05-09T06:12:37.009Z,12.60
2017-05-09T06:15:03.992Z,12.70
2017-05-09T06:17:30.920Z,12.70
2017-05-09T06:19:58.584Z,12.50
2017-05-09T06:22:26.311Z,12.40
2017-05-09T06:24:53.392Z,12.40
2017-05-09T06:27:21.090Z,12.30
2017-05-09T06:29:48.051Z,12.30
2017-05-09T06:32:15.008Z,12.30
2017-05-09T06:34:41.953Z,12.40
2017-05-09T06:37:08.897Z,12.40
2017-05-09T06:39:35.898Z,12.30
2017-05-09T06:42:03.570Z,12.30
2017-05-09T06:44:31.160Z,12.50
2017-05-09T06:46:58.061Z,12.50
2017-05-09T06:49:25.771Z,12.50
2017-05-09T06:51:52.731Z,12.70
2017-05-09T06:54:19.716Z,13.40
2017-05-09T06:56:47.429Z,14.00
2017-05-09T06:59:14.410Z,14.60
2017-05-09T07:01:42.171Z,14.90
2017-05-09T07:04:09.178Z,15.40
2017-05-09T07:06:36.636Z,15.90
2017-05-09T07:09:03.622Z,16.40
2017-05-09T07:11:30.582Z,17.00
2017-05-09T07:13:58.331Z,17.20
2017-05-09T07:16:25.373Z,17.00
2017-05-09T07:18:52.444Z,17.30
2017-05-09T07:21:19.404Z,17.30
2017-05-09T07:23:47.115Z,17.40
2017-05-09T07:26:14.159Z,17.70
2017-05-09T07:28:41.128Z,17.90
2017-05-09T07:31:08.319Z,18.20
2017-05-09T07:33:36.055Z,18.40
2017-05-09T07:36:03.007Z,18.70
2017-05-09T07:38:29.934Z,18.50
2017-05-09T07:40:57.821Z,18.50
2017-05-09T07:43:24.794Z,18.90
2017-05-09T07:45:51.740Z,19.30
2017-05-09T07:48:19.635Z,19.60
2017-05-09T07:50:46.709Z,20.30
2017-05-09T07:53:13.667Z,20.40
2017-05-09T07:55:40.636Z,20.50
2017-05-09T07:58:08.325Z,20.50
2017-05-09T08:00:35.296Z,21.00
2017-05-09T08:03:02.243Z,21.00
2017-05-09T08:05:30.029Z,21.10
2017-05-09T08:07:57.011Z,21.10
2017-05-09T08:10:24.001Z,20.10
2017-05-09T08:12:50.959Z,19.50
2017-05-09T08:15:17.958Z,18.90
2017-05-09T08:17:44.931Z,18.30
2017-05-09T08:20:12.203Z,17.60
2017-05-09T08:22:39.140Z,17.40
2017-05-09T08:25:06.120Z,17.60
2017-05-09T08:27:33.047Z,17.90
2017-05-09T08:30:00.086Z,17.70
2017-05-09T08:32:27.031Z,17.60
2017-05-09T08:34:53.967Z,17.30
2017-05-09T08:37:20.942Z,17.10
2017-05-09T08:39:47.862Z,16.70
2017-05-09T08:42:14.838Z,16.60
2017-05-09T08:44:41.799Z,16.60
2017-05-09T08:47:09.549Z,16.60
2017-05-09T08:49:36.519Z,16.60
2017-05-09T08:52:04.211Z,17.20
2017-05-09T08:54:31.168Z,18.30
2017-05-09T08:56:58.112Z,18.80
2017-05-09T08:59:25.063Z,19.50
2017-05-09T09:01:52.027Z,19.80
2017-05-09T09:04:18.947Z,19.40
2017-05-09T09:06:45.929Z,19.70
2017-05-09T09:09:12.885Z,19.60
2017-05-09T09:11:40.845Z,19.10
2017-05-09T09:14:08.091Z,19.30
2017-05-09T09:16:35.109Z,20.30
2017-05-09T09:19:02.083Z,20.90
2017-05-09T09:21:29.040Z,21.40
2017-05-09T09:23:55.999Z,21.20
2017-05-09T09:26:23.726Z,20.90
2017-05-09T09:28:51.450Z,20.40
2017-05-09T09:31:18.372Z,20.60
2017-05-09T09:33:45.295Z,21.00
2017-05-09T09:36:12.267Z,20.90
2017-05-09T09:38:39.990Z,22.00
2017-05-09T09:41:06.945Z,22.20
2017-05-09T09:43:33.927Z,23.30
2017-05-09T09:46:01.641Z,23.80
2017-05-09T09:48:28.557Z,23.90
2017-05-09T09:50:55.654Z,24.00
2017-05-09T09:53:22.606Z,24.20
2017-05-09T09:55:49.580Z,25.20
2017-05-09T09:58:17.248Z,25.70
2017-05-09T10:00:44.967Z,26.40
2017-05-09T10:03:11.918Z,26.20
2017-05-09T10:05:38.851Z,24.90
2017-05-09T10:08:05.796Z,25.20
2017-05-09T10:10:32.802Z,26.20
2017-05-09T10:12:59.799Z,26.30
2017-05-09T10:15:26.759Z,25.90
2017-05-09T10:17:54.281Z,26.50
2017-05-09T10:20:21.269Z,26.40
2017-05-09T10:22:48.228Z,26.10
2017-05-09T10:25:15.186Z,24.50
2017-05-09T10:27:43.739Z,22.70
2017-05-09T10:30:10.681Z,21.60
2017-05-09T10:32:37.682Z,20.60
2017-05-09T10:35:04.721Z,20.00
2017-05-09T10:37:31.689Z,21.00
2017-05-09T10:39:58.666Z,23.00
2017-05-09T10:42:25.586Z,24.60
2017-05-09T10:44:52.580Z,24.60
2017-05-09T10:47:20.359Z,23.40
2017-05-09T10:52:27.254Z,21.50
2017-05-09T10:54:54.334Z,21.00
2017-05-09T10:57:21.291Z,21.40
2017-05-09T10:59:48.229Z,22.50
2017-05-09T11:02:15.161Z,21.60
2017-05-09T11:04:43.666Z,22.50
2017-05-09T11:07:10.690Z,23.80
2017-05-09T11:09:37.680Z,25.20
2017-05-09T11:12:04.607Z,26.40
2017-05-09T11:14:31.574Z,26.10
2017-05-09T11:16:59.431Z,26.50
2017-05-09T11:19:26.416Z,25.90
2017-05-09T11:21:53.452Z,23.90
2017-05-09T11:24:20.394Z,22.40
2017-05-09T11:26:48.141Z,21.50
2017-05-09T11:29:15.059Z,20.70
2017-05-09T11:31:42.003Z,20.20
2017-05-09T11:34:09.001Z,19.90
2017-05-09T11:36:35.993Z,20.30
2017-05-09T11:39:02.971Z,22.60
2017-05-09T11:41:31.508Z,24.70
2017-05-09T11:43:59.213Z,27.40
2017-05-09T11:46:26.202Z,27.70
2017-05-09T11:48:53.148Z,27.00
2017-05-09T11:51:20.129Z,27.70
2017-05-09T11:53:48.491Z,26.80
2017-05-09T11:56:15.479Z,25.60
2017-05-09T11:58:42.475Z,24.30
2017-05-09T12:01:10.136Z,22.40
2017-05-09T12:03:37.850Z,21.60
2017-05-09T12:06:04.839Z,20.70
2017-05-09T12:08:31.779Z,20.90
2017-05-09T12:10:58.712Z,21.80
2017-05-09T12:13:25.652Z,23.00
2017-05-09T12:15:52.607Z,24.20
2017-05-09T12:28:05.207Z,23.40
2017-05-09T12:30:32.988Z,24.20
2017-05-09T12:32:59.966Z,25.00
2017-05-09T12:35:26.897Z,25.70
2017-05-09T12:37:53.845Z,25.60
2017-05-09T12:40:20.806Z,24.10
2017-05-09T12:42:47.851Z,22.80
2017-05-09T12:45:14.808Z,21.30
2017-05-09T12:47:42.071Z,20.70
2017-05-09T12:50:09.003Z,20.60
2017-05-09T12:52:35.939Z,20.80
2017-05-09T12:55:02.888Z,20.60
2017-05-09T12:57:29.855Z,21.70
2017-05-09T12:59:57.215Z,23.00
2017-05-09T13:02:24.227Z,23.50
2017-05-09T13:04:50.794Z,22.70
2017-05-09T13:07:17.809Z,22.10
2017-05-09T13:09:44.795Z,22.30
2017-05-09T13:12:11.798Z,21.70
2017-05-09T13:14:38.768Z,21.40
2017-05-09T13:17:05.815Z,21.80
2017-05-09T13:19:32.724Z,22.00
2017-05-09T13:21:59.307Z,21.60
2017-05-09T13:24:26.598Z,22.00
2017-05-09T13:26:53.593Z,23.20
2017-05-09T13:29:20.849Z,22.90
2017-05-09T13:31:47.863Z,21.10
2017-05-09T13:34:14.804Z,20.00
2017-05-09T13:36:42.562Z,20.50
2017-05-09T13:39:10.278Z,22.60
2017-05-09T13:41:38.006Z,22.60
2017-05-09T13:44:05.032Z,21.30
2017-05-09T13:46:32.734Z,20.80
2017-05-09T13:48:59.708Z,20.50
2017-05-09T13:51:26.667Z,21.40
2017-05-09T13:53:54.488Z,22.80
2017-05-09T13:56:21.458Z,23.30
2017-05-09T13:58:48.489Z,23.40
2017-05-09T14:01:15.433Z,23.10
2017-05-09T14:03:42.838Z,22.70
2017-05-09T14:06:10.489Z,21.80
2017-05-09T14:08:37.454Z,21.50
2017-05-09T14:11:05.164Z,21.30
2017-05-09T14:13:32.161Z,21.10
2017-05-09T14:15:59.161Z,20.60
2017-05-09T14:18:26.115Z,20.00
2017-05-09T14:20:53.118Z,19.60
2017-05-09T14:23:20.818Z,19.30
2017-05-09T14:25:47.773Z,19.30
2017-05-09T14:28:14.748Z,19.50
2017-05-09T14:30:41.688Z,19.80
2017-05-09T14:33:08.695Z,20.00
2017-05-09T14:35:35.699Z,20.20
2017-05-09T14:38:02.611Z,20.00
2017-05-09T14:40:29.566Z,19.90
2017-05-09T14:42:56.557Z,19.80
2017-05-09T14:45:24.277Z,19.60
2017-05-09T14:47:51.241Z,19.50
2017-05-09T14:50:18.264Z,19.50
2017-05-09T14:52:45.192Z,19.40
2017-05-09T14:55:12.112Z,19.50
2017-05-09T14:57:39.128Z,19.60
2017-05-09T15:00:06.941Z,19.40
2017-05-09T15:02:33.933Z,19.50
2017-05-09T15:05:00.928Z,19.30
2017-05-09T15:07:27.511Z,19.20
2017-05-09T15:09:54.559Z,19.10
2017-05-09T15:12:21.589Z,19.00
2017-05-09T15:14:48.578Z,19.00
2017-05-09T15:17:16.331Z,18.80
2017-05-09T15:19:43.285Z,18.70
2017-05-09T15:22:11.177Z,18.30
2017-05-09T15:24:38.284Z,18.10
2017-05-09T15:27:05.309Z,18.10
2017-05-09T15:29:32.437Z,18.10
2017-05-09T15:32:00.540Z,17.90
2017-05-09T15:34:27.579Z,17.90
2017-05-09T15:36:54.691Z,17.80
2017-05-09T15:39:22.433Z,17.60
2017-05-09T15:41:49.399Z,17.60
2017-05-09T15:44:17.118Z,17.40
2017-05-09T15:46:44.136Z,17.50
2017-05-09T15:49:11.087Z,17.50
2017-05-09T15:51:38.769Z,17.50
2017-05-09T15:54:05.785Z,17.50
2017-05-09T15:56:32.767Z,17.50
2017-05-09T15:58:59.712Z,17.40
2017-05-09T16:01:26.694Z,17.40
2017-05-09T16:03:53.651Z,17.40
2017-05-09T16:06:22.016Z,17.40
2017-05-09T16:08:49.028Z,17.40
2017-05-09T16:11:15.968Z,17.30
2017-05-09T16:13:42.934Z,17.20
2017-05-09T16:16:09.873Z,17.10
2017-05-09T16:18:37.695Z,17.10
2017-05-09T16:21:04.723Z,17.00
2017-05-09T16:23:32.466Z,17.10
2017-05-09T16:25:59.399Z,17.00
2017-05-09T16:28:26.416Z,17.00
2017-05-09T16:30:53.392Z,16.90
2017-05-09T16:33:20.324Z,16.90
2017-05-09T16:35:47.267Z,16.90
2017-05-09T16:38:14.834Z,17.00
2017-05-09T16:43:10.146Z,17.10
2017-05-09T16:45:37.904Z,17.10
2017-05-09T16:48:04.881Z,17.10
2017-05-09T16:50:31.831Z,17.10
2017-05-09T16:52:58.730Z,17.10
2017-05-09T16:55:26.219Z,17.10
2017-05-09T16:57:53.208Z,17.10
2017-05-09T17:00:20.914Z,17.00
2017-05-09T17:02:48.491Z,17.00
2017-05-09T17:05:15.441Z,16.90
2017-05-09T17:07:42.471Z,16.60
2017-05-09T17:10:09.443Z,16.60
2017-05-09T17:12:36.458Z,16.70
2017-05-09T17:15:03.405Z,16.80
2017-05-09T17:17:30.435Z,16.60
2017-05-09T17:19:58.669Z,16.40
2017-05-09T17:22:26.979Z,16.40
2017-05-09T17:24:54.100Z,16.40
2017-05-09T17:27:21.060Z,16.30
2017-05-09T17:29:49.612Z,16.20
2017-05-09T17:32:16.524Z,16.20
2017-05-09T17:34:43.498Z,16.10
2017-05-09T17:37:10.441Z,16.00
2017-05-09T17:39:37.345Z,15.80
2017-05-09T17:42:04.345Z,15.70
2017-05-09T17:44:32.276Z,15.60
2017-05-09T17:46:59.200Z,15.50
2017-05-09T17:49:26.917Z,15.50
2017-05-09T17:51:54.608Z,15.40
2017-05-09T17:54:22.361Z,15.00
2017-05-09T17:56:49.294Z,15.20
2017-05-09T17:59:16.292Z,15.10
2017-05-09T18:01:44.081Z,15.00
2017-05-09T18:04:11.050Z,15.00
2017-05-09T18:06:38.043Z,14.90
2017-05-09T18:09:05.739Z,14.90
2017-05-09T18:11:32.788Z,15.00
2017-05-09T18:13:59.840Z,14.90
2017-05-09T18:16:26.800Z,14.90
2017-05-09T18:18:53.773Z,15.00
2017-05-09T18:21:20.731Z,14.90
2017-05-09T18:23:47.673Z,14.80
2017-05-09T18:26:14.611Z,14.80
2017-05-09T18:28:41.587Z,14.70
2017-05-09T18:31:09.370Z,14.60
2017-05-09T18:33:36.326Z,14.70
2017-05-09T18:36:03.287Z,14.60
2017-05-09T18:38:30.301Z,14.70
2017-05-09T18:40:57.338Z,14.70
2017-05-09T18:43:26.441Z,14.60
2017-05-09T18:45:53.448Z,14.60
2017-05-09T18:48:20.350Z,14.50
2017-05-09T18:50:47.307Z,14.40
2017-05-09T18:53:14.246Z,14.40
2017-05-09T18:55:41.252Z,14.30
2017-05-09T18:58:08.309Z,14.20
2017-05-09T19:00:35.990Z,14.10
2017-05-09T19:03:02.937Z,14.10
2017-05-09T19:05:30.736Z,14.10
2017-05-09T19:07:58.422Z,13.90
2017-05-09T19:10:25.441Z,13.80
2017-05-09T19:12:52.424Z,13.70
2017-05-09T19:15:19.469Z,13.60
2017-05-09T19:17:47.329Z,13.70
2017-05-09T19:20:14.462Z,13.70
2017-05-09T19:22:41.526Z,13.80
2017-05-09T19:25:08.524Z,13.70
2017-05-09T19:27:35.518Z,13.50
2017-05-09T19:30:03.581Z,13.50
2017-05-09T19:32:30.615Z,13.30
2017-05-09T19:35:00.327Z,13.20
2017-05-09T19:37:27.271Z,13.20
2017-05-09T19:39:54.231Z,13.30
2017-05-09T19:42:21.345Z,13.30
2017-05-09T19:44:48.271Z,13.30
2017-05-09T19:47:15.688Z,13.30
2017-05-09T19:49:42.672Z,13.40
2017-05-09T19:52:10.420Z,13.30
2017-05-09T19:54:37.373Z,13.00
2017-05-09T19:57:04.039Z,12.80
2017-05-09T19:59:30.993Z,12.70
2017-05-09T20:01:57.981Z,12.60
2017-05-09T20:04:25.367Z,12.40
2017-05-09T20:06:52.059Z,12.30
2017-05-09T20:09:19.278Z,12.20
2017-05-09T20:11:46.280Z,12.10
2017-05-09T20:14:13.344Z,12.00
2017-05-09T20:16:41.169Z,12.00
2017-05-09T20:19:07.750Z,11.90
2017-05-09T20:21:35.566Z,11.90
2017-05-09T20:24:02.708Z,11.90
2017-05-09T20:26:29.850Z,12.00
2017-05-09T20:28:57.794Z,12.00
2017-05-09T20:31:27.021Z,12.00
2017-05-09T20:33:56.716Z,12.00
2017-05-09T20:36:23.743Z,12.00
2017-05-09T20:38:51.530Z,11.90
2017-05-09T20:41:18.489Z,11.90
2017-05-09T20:43:45.517Z,11.80
2017-05-09T20:46:13.283Z,11.60
2017-05-09T20:48:40.993Z,11.50
2017-05-09T20:51:07.916Z,11.60
2017-05-09T20:53:34.899Z,11.50
2017-05-09T20:56:02.117Z,11.40
2017-05-09T20:58:30.007Z,11.50
2017-05-09T21:00:56.988Z,11.50
2017-05-09T21:03:24.757Z,11.50
2017-05-09T21:05:52.749Z,11.50
2017-05-09T21:08:19.698Z,11.50
2017-05-09T21:10:46.702Z,11.40
2017-05-09T21:13:13.629Z,11.30
2017-05-09T21:15:40.875Z,11.30
2017-05-09T21:18:07.841Z,11.30
2017-05-09T21:20:34.801Z,11.20
2017-05-09T21:23:01.825Z,11.20
2017-05-09T21:25:28.801Z,11.20
2017-05-09T21:27:55.857Z,11.00
2017-05-09T21:30:23.613Z,11.00
2017-05-09T21:32:50.588Z,11.00
2017-05-09T21:35:17.562Z,11.00
2017-05-09T21:37:44.500Z,11.00
2017-05-09T21:40:12.259Z,10.90
2017-05-09T21:42:39.244Z,10.90
2017-05-09T21:45:06.248Z,10.90
2017-05-09T21:47:33.222Z,10.90
2017-05-09T21:50:00.240Z,10.80
2017-05-09T21:52:27.238Z,10.80
2017-05-09T21:54:54.241Z,10.70
2017-05-09T21:57:21.173Z,10.70
2017-05-09T21:59:48.126Z,10.70
2017-05-09T22:02:15.132Z,10.70
2017-05-09T22:04:42.072Z,10.60
2017-05-09T22:07:09.016Z,10.50
2017-05-09T22:09:35.999Z,10.40
2017-05-09T22:12:02.935Z,10.30
2017-05-09T22:14:29.843Z,10.40
2017-05-09T22:16:57.522Z,10.40
2017-05-09T22:19:24.436Z,10.40
2017-05-09T22:21:51.447Z,10.40
2017-05-09T22:24:18.394Z,10.40
2017-05-09T22:26:45.341Z,10.30
2017-05-09T22:29:12.276Z,10.30
2017-05-09T22:31:39.953Z,10.20
2017-05-09T22:34:06.913Z,10.10
2017-05-09T22:36:33.880Z,10.00
2017-05-09T22:39:00.855Z,10.00
2017-05-09T22:41:27.870Z,10.00
2017-05-09T22:43:54.816Z,10.00
2017-05-09T22:46:21.779Z,10.00
2017-05-09T22:48:48.756Z,9.90
2017-05-09T22:51:15.750Z,9.80
2017-05-09T22:53:42.723Z,9.90
2017-05-09T22:56:09.651Z,9.80
2017-05-09T22:58:36.583Z,9.80
2017-05-09T23:01:03.523Z,9.80
2017-05-09T23:03:30.459Z,9.80
2017-05-09T23:05:57.464Z,9.80
2017-05-09T23:08:24.455Z,9.80
2017-05-09T23:10:51.421Z,9.80
2017-05-09T23:13:18.402Z,9.80
2017-05-09T23:15:45.429Z,9.70
2017-05-09T23:18:12.351Z,9.60
2017-05-09T23:20:39.342Z,9.60
2017-05-09T23:23:06.286Z,9.60
2017-05-09T23:28:00.765Z,9.60
2017-05-09T23:30:27.667Z,9.50
2017-05-09T23:32:55.336Z,9.50
2017-05-09T23:35:22.325Z,9.40
2017-05-09T23:37:49.289Z,9.30
2017-05-09T23:40:16.899Z,9.30
2017-05-09T23:42:43.909Z,9.20
2017-05-09T23:45:10.870Z,9.20
2017-05-09T23:47:38.557Z,9.10
2017-05-09T23:50:05.512Z,9.20
2017-05-09T23:52:32.579Z,9.20
2017-05-09T23:54:59.503Z,9.20
2017-05-09T23:57:26.458Z,9.20
2017-05-09T23:59:53.404Z,9.10
